Terminal Aerodrome Forecast
Issued by NWS

Home | Current Version | Previous Version | Text Only | Print | Product List | Glossary On
Versions: 1 2 3 4 5 6 7 8 9 10 11 12 13 14 15 16 17 18 19
000
FTUS43 KPAH 211700
TAFCGI
TAF
KCGI 211731Z 2118/2218 VRB04KT P6SM BKN045
     FM220100 13006KT P6SM SCT080 BKN150
     FM220900 15008KT 4SM BR BKN015 PROB30 2209/2215 2SM -RA BR
      OVC007
     FM221500 15010KT 3SM -RA BR OVC008=

USA.gov is the U.S. government's official web portal to all federal, state and local government web resources and services.